Time;durP1;ratioP1;P1;durP2;ratioP2;P2;SDS_P1;SDS_P2;PMS_P1;PMS_P2;Temp;Humidity;BMP_temperature;BMP_pressure;BME280_temperature;BME280_humidity;BME280_pressure;Samples;Min_cycle;Max_cycle;Signal;HPM_P1;HPM_P2
2024/03/25 00:00:34;;;;;;;;;6.67;6.33;;;;;23.13;36.81;100902.97;4937413;28;45425;-72
2024/03/25 00:02:59;;;;;;;;;10.50;6.75;;;;;23.04;37.13;100887.13;4940098;28;45513;-73
2024/03/25 00:05:25;;;;;;;;;8.33;6.00;;;;;23.11;37.03;100897.81;4940685;28;46305;-73
2024/03/25 00:07:51;;;;;;;;;6.25;5.75;;;;;22.99;37.39;100878.91;4940514;28;45402;-73
2024/03/25 00:10:17;;;;;;;;;5.67;4.67;;;;;23.10;36.83;100892.72;4940664;28;45398;-72
2024/03/25 00:12:43;;;;;;;;;10.33;6.67;;;;;23.10;36.72;100888.22;4940744;28;45303;-72
2024/03/25 00:15:09;;;;;;;;;5.67;5.67;;;;;23.11;36.74;100887.19;4940572;28;47177;-72
2024/03/25 00:17:34;;;;;;;;;3.33;2.33;;;;;23.10;37.03;100876.78;4940580;28;45370;-73
2024/03/25 00:20:00;;;;;;;;;6.33;6.00;;;;;22.88;36.67;100851.03;4940560;28;45660;-73
2024/03/25 00:22:25;;;;;;;;;6.67;6.67;;;;;23.10;36.75;100874.13;4930111;28;45383;-73
2024/03/25 00:24:51;;;;;;;;;6.00;5.67;;;;;23.10;37.12;100871.47;4902265;28;45421;-73
2024/03/25 00:27:17;;;;;;;;;7.00;6.33;;;;;23.04;36.70;100860.59;4902065;28;45561;-72
2024/03/25 00:29:44;;;;;;;;;8.67;7.00;;;;;23.10;37.00;100863.53;4902056;29;45503;-72
2024/03/25 00:32:10;;;;;;;;;5.00;5.00;;;;;23.10;36.60;100853.72;4902171;28;45460;-73
2024/03/25 00:34:35;;;;;;;;;7.33;6.00;;;;;23.10;36.98;100847.59;4902031;28;45740;-73
2024/03/25 00:37:01;;;;;;;;;7.33;6.00;;;;;23.10;37.30;100845.78;4901481;28;45505;-72
2024/03/25 00:39:27;;;;;;;;;5.00;5.00;;;;;23.09;37.05;100846.78;4902184;28;45580;-72
2024/03/25 00:41:53;;;;;;;;;7.67;4.67;;;;;23.09;36.97;100840.63;4930313;28;45404;-73
2024/03/25 00:44:19;;;;;;;;;7.00;5.33;;;;;23.06;37.28;100833.88;4940105;28;45585;-72
2024/03/25 00:46:44;;;;;;;;;9.00;6.00;;;;;23.04;37.19;100826.09;4940190;28;45441;-72
2024/03/25 00:49:10;;;;;;;;;7.67;7.00;;;;;23.08;37.03;100823.91;4940344;28;45446;-72
2024/03/25 00:51:37;;;;;;;;;6.00;6.00;;;;;22.99;36.77;100801.13;4939774;28;45322;-73
2024/03/25 00:54:03;;;;;;;;;6.00;5.67;;;;;23.08;36.67;100810.66;4940005;28;45402;-72
2024/03/25 00:56:28;;;;;;;;;6.33;5.67;;;;;23.07;36.60;100817.78;4939876;28;45429;-72
2024/03/25 00:58:54;;;;;;;;;6.33;6.00;;;;;23.07;37.13;100817.78;4939990;28;45387;-73
2024/03/25 01:01:19;;;;;;;;;7.00;7.00;;;;;23.01;36.67;100804.41;4940054;28;45390;-72
2024/03/25 01:03:45;;;;;;;;;5.33;5.33;;;;;23.06;36.77;100804.69;4939971;28;45357;-72
2024/03/25 01:06:10;;;;;;;;;7.33;5.00;;;;;23.05;36.88;100803.06;4939553;28;46050;-73
2024/03/25 01:08:35;;;;;;;;;7.00;4.67;;;;;22.96;37.26;100779.28;4940053;28;45878;-72
2024/03/25 01:11:00;;;;;;;;;6.00;4.00;;;;;23.05;37.37;100785.31;4939549;28;47996;-72
2024/03/25 01:13:26;;;;;;;;;8.00;6.00;;;;;23.05;36.99;100780.00;4938764;28;45322;-73
2024/03/25 01:15:51;;;;;;;;;6.67;6.67;;;;;23.05;37.18;100768.56;4939571;28;49995;-73
2024/03/25 01:18:17;;;;;;;;;5.00;5.00;;;;;22.98;37.22;100752.56;4939864;28;45225;-72
2024/03/25 01:20:44;;;;;;;;;8.33;6.33;;;;;23.04;37.13;100757.13;4939479;28;45385;-73
2024/03/25 01:23:09;;;;;;;;;5.33;4.00;;;;;23.00;36.82;100758.53;4917747;28;45374;-72
2024/03/25 01:25:35;;;;;;;;;7.33;4.67;;;;;23.04;36.97;100748.34;4901230;28;45347;-73
2024/03/25 01:28:00;;;;;;;;;8.00;6.67;;;;;22.96;37.26;100725.41;4901695;28;45235;-71
2024/03/25 01:30:25;;;;;;;;;6.67;6.67;;;;;22.98;36.81;100730.53;4901291;28;45333;-71
2024/03/25 01:32:51;;;;;;;;;4.33;4.33;;;;;23.02;36.71;100737.09;4900002;29;48048;-73
2024/03/25 01:35:16;;;;;;;;;6.00;6.00;;;;;23.01;36.59;100725.66;4900937;28;45306;-73
2024/03/25 01:37:42;;;;;;;;;4.67;3.00;;;;;23.00;37.16;100729.34;4901296;28;45391;-73
2024/03/25 01:40:10;;;;;;;;;6.67;5.00;;;;;23.00;36.99;100725.84;4901708;28;45387;-73
2024/03/25 01:42:36;;;;;;;;;5.00;3.00;;;;;23.00;37.15;100726.69;4939329;28;47287;-73
2024/03/25 01:45:02;;;;;;;;;5.00;5.00;;;;;23.00;36.99;100720.53;4939468;28;45517;-72
2024/03/25 01:47:29;;;;;;;;;8.33;5.33;;;;;23.00;36.86;100716.06;4939186;28;45339;-72
2024/03/25 01:49:56;;;;;;;;;4.67;4.67;;;;;22.99;36.51;100714.41;4938835;28;45277;-73
2024/03/25 01:52:23;;;;;;;;;5.00;5.00;;;;;22.99;36.87;100711.75;4939090;28;46269;-71
2024/03/25 01:54:49;;;;;;;;;7.67;6.00;;;;;23.00;36.69;100715.25;4939168;28;45413;-71
2024/03/25 01:57:15;;;;;;;;;6.67;5.67;;;;;22.92;36.84;100701.09;4939158;28;45507;-73
2024/03/25 01:59:41;;;;;;;;;8.00;5.00;;;;;23.00;37.03;100717.88;4938985;28;45313;-73
2024/03/25 02:02:08;;;;;;;;;4.67;4.67;;;;;22.99;37.13;100703.78;4938898;28;46347;-73
2024/03/25 02:04:33;;;;;;;;;5.00;5.00;;;;;22.99;36.68;100698.50;4938583;28;45290;-73
2024/03/25 02:06:59;;;;;;;;;5.00;3.00;;;;;23.00;36.49;100701.97;4938966;28;45283;-73
2024/03/25 02:09:26;;;;;;;;;4.67;4.67;;;;;23.00;36.91;100699.31;4937708;28;45517;-73
2024/03/25 02:11:53;;;;;;;;;5.33;5.33;;;;;22.99;36.76;100692.34;4938838;28;46076;-72
2024/03/25 02:14:19;;;;;;;;;6.00;5.33;;;;;22.99;36.99;100684.41;4938730;28;45315;-72
2024/03/25 02:16:44;;;;;;;;;5.67;4.00;;;;;22.98;36.55;100685.44;4953795;28;45362;-72
2024/03/25 02:19:12;;;;;;;;;6.33;5.00;;;;;22.90;37.11;100673.91;4938469;28;45350;-72
2024/03/25 02:21:38;;;;;;;;;8.00;6.67;;;;;22.98;36.46;100675.59;4938697;28;45422;-72
2024/03/25 02:24:09;;;;;;;;;5.00;4.67;;;;;22.99;37.15;100674.63;4902584;28;45323;-72
2024/03/25 02:26:34;;;;;;;;;7.00;5.67;;;;;22.99;36.73;100671.13;4900571;28;45398;-73
2024/03/25 02:29:00;;;;;;;;;7.00;5.00;;;;;22.98;36.59;100670.31;4900412;28;45403;-72
2024/03/25 02:31:25;;;;;;;;;5.67;5.00;;;;;22.98;36.39;100669.50;4900230;28;46849;-73
2024/03/25 02:33:50;;;;;;;;;6.00;6.00;;;;;22.96;36.42;100670.50;4900129;28;45328;-73
2024/03/25 02:36:16;;;;;;;;;5.00;4.67;;;;;22.90;36.40;100652.69;4900422;28;45327;-73
2024/03/25 02:38:41;;;;;;;;;7.00;3.67;;;;;22.97;36.40;100666.03;4900165;28;45410;-73
2024/03/25 02:41:06;;;;;;;;;2.00;0.67;;;;;22.96;36.40;100667.84;4916151;28;46077;-72
2024/03/25 02:43:33;;;;;;;;;4.67;4.67;;;;;22.97;36.96;100666.03;4938484;28;45231;-73
2024/03/25 02:45:58;;;;;;;;;7.33;7.00;;;;;22.95;36.34;100660.09;4938519;28;45446;-72
2024/03/25 02:48:23;;;;;;;;;6.00;6.00;;;;;22.96;36.64;100667.03;4938138;28;45416;-73
2024/03/25 02:50:49;;;;;;;;;6.67;6.67;;;;;22.95;37.05;100657.44;4938206;28;45239;-73
2024/03/25 02:53:14;;;;;;;;;11.00;6.00;;;;;22.93;36.50;100644.34;4938320;28;45283;-72
2024/03/25 02:55:39;;;;;;;;;6.00;4.67;;;;;22.94;37.04;100645.19;4937982;28;50748;-72
2024/03/25 02:58:05;;;;;;;;;5.00;5.00;;;;;22.94;36.54;100637.22;4938429;28;45292;-73
2024/03/25 03:00:30;;;;;;;;;6.33;4.33;;;;;22.90;36.68;100633.31;4952365;28;55771;-72
2024/03/25 03:02:55;;;;;;;;;6.67;4.67;;;;;22.94;36.86;100626.59;4938210;28;45257;-73
2024/03/25 03:05:21;;;;;;;;;7.67;5.00;;;;;22.93;37.01;100623.13;4938471;28;45434;-72
2024/03/25 03:07:46;;;;;;;;;5.75;5.50;;;;;22.93;36.49;100612.53;4938227;28;45450;-73
2024/03/25 03:10:11;;;;;;;;;6.00;5.00;;;;;22.93;36.90;100598.44;4937905;28;45633;-72
2024/03/25 03:12:37;;;;;;;;;4.00;3.33;;;;;22.93;36.89;100601.06;4937952;28;45434;-72
2024/03/25 03:15:02;;;;;;;;;4.67;4.00;;;;;22.88;36.52;100590.22;4937771;28;45306;-72
2024/03/25 03:17:27;;;;;;;;;4.67;4.67;;;;;22.93;36.44;100585.16;4938099;28;45358;-72
2024/03/25 03:19:53;;;;;;;;;4.33;4.33;;;;;22.88;36.21;100574.31;4937482;28;55797;-73
2024/03/25 03:22:18;;;;;;;;;8.33;7.00;;;;;22.93;36.39;100582.50;4929474;28;45489;-73
2024/03/25 03:24:43;;;;;;;;;7.00;5.00;;;;;22.90;36.44;100588.22;4899750;29;45435;-72
2024/03/25 03:27:09;;;;;;;;;4.67;4.67;;;;;22.88;36.69;100577.78;4899654;29;45352;-73
2024/03/25 03:29:34;;;;;;;;;4.00;4.00;;;;;22.86;36.45;100574.50;4898963;28;47194;-72
2024/03/25 03:31:59;;;;;;;;;4.33;4.33;;;;;22.87;36.79;100568.22;4899647;28;45688;-73
2024/03/25 03:34:25;;;;;;;;;4.33;4.33;;;;;22.92;36.93;100580.88;4899704;28;45423;-73
2024/03/25 03:36:51;;;;;;;;;6.33;3.33;;;;;22.93;36.35;100569.25;4898855;28;45353;-72
2024/03/25 03:39:17;;;;;;;;;3.00;3.00;;;;;22.87;36.67;100554.94;4897867;29;45912;-72
2024/03/25 03:41:43;;;;;;;;;6.67;4.00;;;;;22.92;36.57;100552.53;4924983;28;45422;-73
2024/03/25 03:44:09;;;;;;;;;5.33;4.00;;;;;22.92;36.90;100551.72;4937320;28;45430;-73
2024/03/25 03:46:34;;;;;;;;;6.33;4.33;;;;;22.92;36.74;100557.84;4937776;28;45437;-72
2024/03/25 03:49:00;;;;;;;;;6.00;5.00;;;;;22.92;36.55;100564.97;4936058;28;46053;-73
2024/03/25 03:51:25;;;;;;;;;5.00;4.00;;;;;22.87;36.38;100551.47;4937715;28;45350;-72
2024/03/25 03:53:50;;;;;;;;;5.50;5.50;;;;;22.91;36.53;100558.84;4937656;28;45315;-73
2024/03/25 03:56:16;;;;;;;;;3.00;3.00;;;;;22.90;36.96;100546.56;4937447;28;45375;-72
2024/03/25 03:58:41;;;;;;;;;6.00;5.00;;;;;22.70;36.26;100525.22;4937011;28;46080;-72
2024/03/25 04:01:16;;;;;;;;;4.33;4.33;;;;;22.84;36.70;100547.38;4937355;28;45391;-72
2024/03/25 04:03:42;;;;;;;;;6.67;5.00;;;;;22.88;36.75;100547.78;4937517;28;45447;-72
2024/03/25 04:06:10;;;;;;;;;5.33;4.00;;;;;22.89;36.60;100537.00;4937472;28;45416;-73
2024/03/25 04:08:35;;;;;;;;;7.67;4.67;;;;;22.80;36.36;100536.31;4937339;28;47156;-72
2024/03/25 04:11:01;;;;;;;;;5.00;4.33;;;;;22.89;36.13;100546.78;4936868;28;50794;-72
2024/03/25 04:13:27;;;;;;;;;5.00;5.00;;;;;22.88;36.36;100538.00;4937093;28;45494;-72
2024/03/25 04:15:52;;;;;;;;;4.00;4.00;;;;;22.88;36.69;100531.88;4937344;28;45533;-72
2024/03/25 04:18:19;;;;;;;;;6.00;4.33;;;;;22.87;36.22;100516.97;4936997;28;46080;-72
2024/03/25 04:20:44;;;;;;;;;5.00;5.00;;;;;22.87;36.26;100514.31;4937268;28;45381;-72
2024/03/25 04:23:10;;;;;;;;;4.67;4.67;;;;;22.79;36.24;100513.47;4915228;28;45356;-72
2024/03/25 04:25:38;;;;;;;;;9.33;4.67;;;;;22.87;36.15;100520.47;4899008;28;45468;-73
2024/03/25 04:28:05;;;;;;;;;7.67;5.67;;;;;22.49;36.70;100457.94;4898497;28;45406;-72
2024/03/25 04:30:32;;;;;;;;;4.00;4.00;;;;;22.79;36.79;100492.25;4898696;28;45340;-73
2024/03/25 04:32:57;;;;;;;;;5.33;4.33;;;;;22.87;36.84;100496.59;4898958;28;45311;-73
2024/03/25 04:35:23;;;;;;;;;4.00;4.00;;;;;22.86;36.46;100508.19;4898824;28;45455;-72
2024/03/25 04:37:48;;;;;;;;;6.00;6.00;;;;;22.78;37.05;100495.91;4898528;28;46228;-72
2024/03/25 04:40:14;;;;;;;;;4.00;3.67;;;;;22.82;36.19;100501.66;4899473;28;45876;-73
2024/03/25 04:42:40;;;;;;;;;4.00;4.00;;;;;22.79;36.43;100500.22;4936880;28;45340;-73
2024/03/25 04:45:05;;;;;;;;;4.33;4.00;;;;;22.85;36.05;100504.72;4937086;28;45486;-73
2024/03/25 04:47:30;;;;;;;;;4.00;4.00;;;;;22.87;36.26;100488.63;4937200;28;47504;-73
2024/03/25 04:49:56;;;;;;;;;4.00;4.00;;;;;22.87;36.60;100487.81;4940074;28;45370;-73
2024/03/25 04:52:23;;;;;;;;;7.00;6.33;;;;;22.87;36.22;100495.75;4939905;28;49842;-73
2024/03/25 04:54:49;;;;;;;;;6.00;5.00;;;;;22.85;36.19;100482.69;4940274;28;45374;-73
2024/03/25 04:57:14;;;;;;;;;6.00;4.00;;;;;22.88;36.64;100495.56;4939679;28;46830;-73
2024/03/25 04:59:39;;;;;;;;;4.00;4.00;;;;;22.86;36.09;100497.59;4939459;28;53647;-72
2024/03/25 05:02:05;;;;;;;;;5.67;3.67;;;;;22.85;36.63;100496.75;4940074;28;45494;-72
2024/03/25 05:04:31;;;;;;;;;3.00;3.00;;;;;22.84;36.17;100495.13;4939786;28;46629;-72
2024/03/25 05:06:56;;;;;;;;;5.67;4.00;;;;;22.72;36.22;100478.94;4939886;28;45922;-73
2024/03/25 05:09:21;;;;;;;;;4.67;3.67;;;;;22.85;36.65;100504.72;4939933;28;45405;-73
2024/03/25 05:11:47;;;;;;;;;3.33;3.33;;;;;22.87;36.32;100498.41;4939542;28;45308;-73
2024/03/25 05:14:12;;;;;;;;;4.00;4.00;;;;;22.85;36.61;100496.75;4939978;28;45319;-73
2024/03/25 05:16:37;;;;;;;;;8.00;5.33;;;;;22.85;36.03;100506.53;4939773;28;46228;-73
2024/03/25 05:19:04;;;;;;;;;3.00;3.00;;;;;22.85;36.46;100503.91;4939777;28;45476;-73
2024/03/25 05:21:30;;;;;;;;;4.00;4.00;;;;;22.81;36.66;100492.88;4939695;28;45360;-72
2024/03/25 05:23:55;;;;;;;;;5.67;5.00;;;;;22.85;36.60;100499.41;4905678;28;45411;-72
2024/03/25 05:26:20;;;;;;;;;3.33;3.33;;;;;22.85;36.33;100496.75;4900955;29;51452;-73
2024/03/25 05:28:46;;;;;;;;;4.00;3.33;;;;;22.83;36.61;100487.34;4901223;29;48607;-72
2024/03/25 05:31:11;;;;;;;;;8.00;5.00;;;;;22.84;36.17;100479.22;4901423;29;45451;-72
2024/03/25 05:33:37;;;;;;;;;4.00;4.00;;;;;22.83;36.82;100479.41;4901194;28;47293;-72
2024/03/25 05:36:03;;;;;;;;;4.33;4.00;;;;;22.83;36.29;100474.91;4901223;28;45395;-72
2024/03/25 05:38:29;;;;;;;;;4.00;2.33;;;;;22.73;36.42;100447.94;4900896;28;45422;-72
2024/03/25 05:40:56;;;;;;;;;3.33;3.00;;;;;22.82;36.72;100464.53;4914065;28;45367;-72
2024/03/25 05:43:22;;;;;;;;;5.00;4.00;;;;;22.83;36.62;100466.16;4939509;28;45431;-72
2024/03/25 05:45:54;;;;;;;;;4.00;3.00;;;;;22.82;36.74;100461.88;4939081;28;46484;-72
2024/03/25 05:48:20;;;;;;;;;4.33;4.33;;;;;22.78;36.31;100445.50;4939142;28;45363;-72
2024/03/25 05:50:45;;;;;;;;;6.67;5.33;;;;;22.82;36.78;100446.75;4939296;28;45438;-73
2024/03/25 05:53:11;;;;;;;;;4.67;3.67;;;;;22.80;36.50;100440.81;4939173;28;45516;-72
2024/03/25 05:55:36;;;;;;;;;3.00;3.00;;;;;22.76;36.17;100436.94;4938644;28;47330;-72
2024/03/25 05:58:02;;;;;;;;;6.33;4.00;;;;;22.80;36.49;100448.78;4939151;28;45298;-72
2024/03/25 06:00:28;;;;;;;;;4.00;4.00;;;;;22.81;36.51;100452.25;4938461;28;45402;-72
2024/03/25 06:02:53;;;;;;;;;3.33;3.33;;;;;22.80;36.13;100450.59;4939031;28;45394;-73
2024/03/25 06:05:19;;;;;;;;;3.00;3.00;;;;;22.80;36.33;100448.78;4938962;28;45935;-72
2024/03/25 06:07:44;;;;;;;;;4.00;4.00;;;;;22.78;36.38;100444.69;4938973;28;45449;-73
2024/03/25 06:10:10;;;;;;;;;4.00;3.00;;;;;22.74;36.04;100433.66;4938739;28;45381;-72
2024/03/25 06:12:35;;;;;;;;;6.67;5.00;;;;;22.80;36.00;100450.59;4939033;28;45429;-72
2024/03/25 06:15:00;;;;;;;;;3.00;3.00;;;;;22.80;36.56;100447.97;4938733;28;45970;-72
2024/03/25 06:17:26;;;;;;;;;4.00;4.00;;;;;22.80;36.06;100445.31;4938882;28;45400;-72
2024/03/25 06:19:52;;;;;;;;;4.33;4.00;;;;;22.80;36.10;100432.88;4938966;28;45326;-72
2024/03/25 06:22:17;;;;;;;;;5.00;2.67;;;;;22.79;36.50;100431.25;4930852;28;45464;-73
2024/03/25 06:24:44;;;;;;;;;3.67;3.67;;;;;22.79;36.45;100444.50;4900162;28;46186;-73
2024/03/25 06:27:09;;;;;;;;;9.00;5.00;;;;;22.80;35.98;100426.75;4900310;28;45384;-72
2024/03/25 06:29:35;;;;;;;;;4.67;3.00;;;;;22.81;36.43;100417.78;4900223;28;45349;-73
2024/03/25 06:34:45;;;;;;;;;3.00;3.00;;;;;22.80;35.90;100408.19;4900191;29;45364;-74
2024/03/25 06:37:10;;;;;;;;;3.33;3.00;;;;;22.79;35.96;100404.72;4899955;28;45402;-75
2024/03/25 06:39:35;;;;;;;;;4.67;3.00;;;;;22.79;36.88;100402.06;4899729;29;45363;-75
2024/03/25 06:42:01;;;;;;;;;5.00;4.00;;;;;22.82;36.55;100399.00;4930755;28;45390;-76
2024/03/25 06:44:26;;;;;;;;;4.00;3.00;;;;;22.87;37.18;100394.97;4925551;28;45422;-76
2024/03/25 06:46:51;;;;;;;;;4.00;4.00;;;;;22.90;36.58;100398.03;4910140;28;45322;-79
2024/03/25 06:49:17;;;;;;;;;6.33;3.00;;;;;22.95;37.35;100400.91;4909715;28;45402;-80
2024/03/25 06:51:42;;;;;;;;;5.00;3.00;;;;;22.92;36.76;100381.94;4909030;28;46358;-80
2024/03/25 06:54:07;;;;;;;;;7.67;3.00;;;;;23.00;36.64;100381.75;4907693;28;45317;-81
2024/03/25 06:56:32;;;;;;;;;5.00;3.00;;;;;23.03;36.67;100380.56;4918295;28;47394;-81
2024/03/25 06:58:58;;;;;;;;;3.33;3.33;;;;;23.21;36.46;100398.56;4912888;28;45339;-77
2024/03/25 07:01:23;;;;;;;;;4.67;4.67;;;;;22.74;36.55;100309.81;4909417;28;48491;-80
2024/03/25 07:03:48;;;;;;;;;5.00;3.67;;;;;23.29;36.44;100395.72;4907112;28;45339;-80
2024/03/25 07:06:14;;;;;;;;;3.67;3.67;;;;;23.34;35.90;100396.97;4909737;28;45308;-79
2024/03/25 07:08:39;;;;;;;;;3.67;3.67;;;;;23.30;35.72;100372.66;4908190;28;45447;-81
2024/03/25 07:11:04;;;;;;;;;4.00;4.00;;;;;23.13;36.05;100332.41;4906249;28;45376;-80
2024/03/25 07:13:30;;;;;;;;;5.00;3.33;;;;;23.49;36.01;100381.72;4909508;28;46682;-77
2024/03/25 07:15:55;;;;;;;;;5.00;3.33;;;;;23.52;35.70;100372.53;4907576;28;45228;-78
2024/03/25 07:18:21;;;;;;;;;6.00;3.67;;;;;23.48;35.62;100361.47;4908785;28;45240;-78
2024/03/25 07:20:46;;;;;;;;;3.00;3.00;;;;;23.59;36.21;100368.06;4909274;28;45317;-76
2024/03/25 07:23:11;;;;;;;;;5.00;4.00;;;;;23.46;35.62;100346.75;4906031;28;47367;-80
2024/03/25 07:25:37;;;;;;;;;3.67;2.33;;;;;23.66;35.50;100365.38;4909271;28;45268;-77
2024/03/25 07:28:04;;;;;;;;;4.33;3.33;;;;;23.66;35.65;100359.25;4908533;28;45354;-78
2024/03/25 07:30:29;;;;;;;;;5.00;3.33;;;;;23.72;35.93;100358.47;4907533;28;45569;-72
2024/03/25 07:32:55;;;;;;;;;5.00;3.33;;;;;23.73;36.01;100352.13;4911141;28;46016;-76
2024/03/25 07:35:21;;;;;;;;;4.33;3.67;;;;;23.67;35.83;100340.47;4918236;28;45647;-91
2024/03/25 07:37:46;;;;;;;;;6.00;4.33;;;;;23.69;35.72;100327.81;4917669;28;45339;-78
2024/03/25 07:40:11;;;;;;;;;5.33;4.00;;;;;23.84;35.73;100338.22;4919280;28;45310;-78
2024/03/25 07:42:38;;;;;;;;;5.00;4.00;;;;;23.89;35.99;100337.59;4937681;28;47290;-78
2024/03/25 07:45:04;;;;;;;;;2.67;2.67;;;;;23.80;35.54;100323.72;4937728;28;45316;-78
2024/03/25 07:47:30;;;;;;;;;3.00;3.00;;;;;23.91;35.86;100337.41;4937646;28;45389;-78
2024/03/25 07:49:55;;;;;;;;;4.00;4.00;;;;;23.83;36.11;100325.97;4937358;28;45305;-77
2024/03/25 07:52:21;;;;;;;;;7.67;5.67;;;;;23.89;36.14;100331.50;4935870;28;48197;-78
2024/03/25 07:54:47;;;;;;;;;3.33;3.33;;;;;23.90;35.83;100327.78;4937552;28;45437;-77
2024/03/25 07:57:12;;;;;;;;;4.00;3.00;;;;;23.93;35.62;100325.56;4937534;28;45393;-78
2024/03/25 07:59:37;;;;;;;;;6.33;3.00;;;;;23.96;36.25;100321.66;4937496;28;45361;-79
2024/03/25 08:02:03;;;;;;;;;4.00;4.00;;;;;23.98;36.17;100319.63;4937347;28;46305;-79
2024/03/25 08:04:29;;;;;;;;;7.33;4.33;;;;;24.01;35.74;100315.72;4937209;28;48115;-78
2024/03/25 08:06:54;;;;;;;;;3.00;3.00;;;;;24.04;35.83;100312.66;4937136;28;45366;-78
2024/03/25 08:09:20;;;;;;;;;4.33;4.00;;;;;24.03;36.09;100301.22;4937206;28;45290;-78
2024/03/25 08:11:45;;;;;;;;;5.00;4.00;;;;;24.00;36.09;100284.84;4937213;28;46239;-78
2024/03/25 08:14:10;;;;;;;;;3.67;3.67;;;;;24.10;36.12;100293.22;4937233;28;45382;-78
2024/03/25 08:16:36;;;;;;;;;4.00;3.33;;;;;24.08;36.09;100287.31;4937359;28;45416;-78
2024/03/25 08:19:01;;;;;;;;;3.00;3.00;;;;;24.10;36.02;100285.25;4937163;28;45361;-78
2024/03/25 08:21:27;;;;;;;;;3.00;3.00;;;;;23.98;36.09;100270.97;4936820;28;46134;-77
2024/03/25 08:23:52;;;;;;;;;3.00;3.00;;;;;23.91;36.17;100247.09;4906493;28;45260;-78
2024/03/25 08:26:17;;;;;;;;;3.00;3.00;;;;;24.03;36.53;100249.91;4902127;29;46001;-79
2024/03/25 08:28:43;;;;;;;;;3.00;3.00;;;;;24.09;35.86;100265.03;4902176;28;45293;-77
2024/03/25 08:31:08;;;;;;;;;2.33;1.00;;;;;24.10;36.32;100266.66;4900655;29;47431;-77
2024/03/25 08:33:33;;;;;;;;;3.00;1.67;;;;;23.98;36.35;100231.13;4902108;28;45385;-78
2024/03/25 08:35:59;;;;;;;;;3.00;2.33;;;;;24.11;36.22;100244.38;4902193;29;45274;-79
2024/03/25 08:38:24;;;;;;;;;3.67;3.67;;;;;24.10;36.16;100237.41;4902009;28;45507;-79
2024/03/25 08:40:51;;;;;;;;;4.00;3.00;;;;;23.77;35.90;100179.88;4913494;28;46111;-76
2024/03/25 08:43:17;;;;;;;;;2.33;2.00;;;;;23.97;36.12;100219.66;4940300;28;45308;-77
2024/03/25 08:45:42;;;;;;;;;2.00;2.00;;;;;24.04;36.46;100230.28;4940385;28;45393;-79
2024/03/25 08:48:08;;;;;;;;;3.00;3.00;;;;;23.81;36.21;100187.22;4940249;28;45365;-78
2024/03/25 08:50:33;;;;;;;;;4.67;3.33;;;;;24.06;36.73;100225.59;4939687;28;46325;-78
2024/03/25 08:52:58;;;;;;;;;2.67;2.67;;;;;24.00;36.24;100219.25;4940131;28;45342;-78
2024/03/25 08:55:24;;;;;;;;;3.00;3.00;;;;;23.92;36.15;100201.69;4940192;28;45282;-78
2024/03/25 08:57:49;;;;;;;;;2.00;2.00;;;;;23.97;36.25;100206.38;4940161;28;45397;-79
2024/03/25 09:00:15;;;;;;;;;4.33;3.00;;;;;23.82;36.49;100185.38;4940022;28;46143;-79
2024/03/25 09:02:40;;;;;;;;;3.00;2.00;;;;;23.67;36.26;100167.03;4940078;28;45384;-77
2024/03/25 09:05:07;;;;;;;;;1.33;1.33;;;;;24.01;36.51;100223.56;4939837;28;45394;-77
2024/03/25 09:07:32;;;;;;;;;2.67;2.67;;;;;23.91;36.34;100209.91;4940109;28;45259;-77
2024/03/25 09:12:42;;;;;;;;;2.67;1.00;;;;;23.88;36.71;100205.81;4939910;28;45470;-77
2024/03/25 09:15:09;;;;;;;;;4.00;3.00;;;;;23.91;36.39;100204.59;4939977;28;45363;-77
2024/03/25 09:17:35;;;;;;;;;2.00;2.00;;;;;23.94;36.71;100212.94;4939645;28;45496;-77
2024/03/25 09:20:00;;;;;;;;;3.67;3.67;;;;;23.94;36.72;100204.97;4939630;28;46309;-77
2024/03/25 09:22:26;;;;;;;;;1.67;1.00;;;;;23.93;36.70;100206.00;4929610;28;45375;-77
2024/03/25 09:24:52;;;;;;;;;5.00;3.00;;;;;23.84;36.54;100199.25;4901558;28;45359;-78
2024/03/25 09:27:17;;;;;;;;;4.00;3.00;;;;;23.89;36.85;100196.00;4901610;28;45426;-78
2024/03/25 09:29:42;;;;;;;;;2.00;2.00;;;;;23.82;36.43;100193.34;4901067;28;51415;-78
2024/03/25 09:32:08;;;;;;;;;4.00;2.00;;;;;23.54;36.61;100146.63;4901053;28;45471;-79
2024/03/25 09:34:33;;;;;;;;;2.67;2.33;;;;;23.90;36.42;100197.63;4900470;28;45506;-78
2024/03/25 09:36:59;;;;;;;;;2.00;2.00;;;;;23.87;36.49;100193.53;4901391;28;45419;-78
2024/03/25 09:39:24;;;;;;;;;2.33;2.33;;;;;23.74;36.19;100170.47;4915627;28;46000;-76
2024/03/25 09:41:54;;;;;;;;;2.33;2.00;;;;;23.74;36.87;100163.34;4928469;28;45413;-78
2024/03/25 09:44:24;;;;;;;;;2.00;2.00;;;;;23.79;36.49;100167.19;4939617;28;45279;-77
2024/03/25 09:46:49;;;;;;;;;3.00;3.00;;;;;23.86;36.97;100173.34;4939206;28;45438;-76
2024/03/25 09:49:15;;;;;;;;;3.33;2.33;;;;;23.86;36.41;100173.34;4939159;28;47291;-78
2024/03/25 09:51:40;;;;;;;;;2.00;2.00;;;;;23.87;36.62;100168.81;4939141;28;45445;-77
2024/03/25 09:54:06;;;;;;;;;2.00;2.00;;;;;23.85;36.53;100161.06;4938310;28;45415;-78
2024/03/25 09:56:32;;;;;;;;;1.00;1.00;;;;;23.88;36.61;100158.00;4939287;28;45439;-78
2024/03/25 09:58:58;;;;;;;;;4.33;3.00;;;;;23.85;36.64;100143.28;4939064;28;46137;-78
2024/03/25 10:01:23;;;;;;;;;4.67;3.00;;;;;23.91;36.52;100140.81;4938651;28;45397;-78
2024/03/25 10:03:49;;;;;;;;;4.00;3.00;;;;;23.90;36.82;100132.03;4938985;28;45392;-80
2024/03/25 10:06:14;;;;;;;;;2.33;2.00;;;;;23.89;36.76;100125.06;4939214;28;45418;-77
2024/03/25 10:08:39;;;;;;;;;3.00;3.00;;;;;23.89;36.36;100122.41;4938933;28;45432;-79
2024/03/25 10:11:05;;;;;;;;;2.67;2.00;;;;;23.96;36.32;100117.91;4938852;28;45308;-79
2024/03/25 10:13:30;;;;;;;;;2.00;2.00;;;;;23.69;36.73;100061.41;4939070;28;45255;-78
2024/03/25 10:15:56;;;;;;;;;3.00;2.00;;;;;23.49;36.51;100022.47;4938703;28;45478;-79
2024/03/25 10:18:22;;;;;;;;;3.00;3.00;;;;;23.99;36.52;100105.22;4938715;28;47197;-79
2024/03/25 10:20:51;;;;;;;;;3.00;2.67;;;;;23.70;36.64;100057.75;4938815;28;45418;-79
2024/03/25 10:23:26;;;;;;;;;4.33;2.67;;;;;23.93;36.34;100096.25;4915369;28;45334;-79
2024/03/25 10:25:55;;;;;;;;;1.00;1.00;;;;;23.95;36.73;100084.38;4900507;28;45439;-80
2024/03/25 10:28:21;;;;;;;;;1.33;1.33;;;;;23.99;36.52;100084.78;4900342;28;45442;-78
2024/03/25 10:30:47;;;;;;;;;2.00;2.00;;;;;23.94;36.44;100069.47;4900162;28;45379;-80
2024/03/25 10:33:12;;;;;;;;;2.67;2.67;;;;;23.98;36.48;100074.34;4900671;28;45595;-79
2024/03/25 10:35:40;;;;;;;;;2.33;1.33;;;;;23.91;36.44;100064.59;4900527;28;45482;-79
2024/03/25 10:38:10;;;;;;;;;2.67;2.67;;;;;23.95;36.64;100081.72;4900141;29;46241;-79
2024/03/25 10:40:38;;;;;;;;;2.33;2.33;;;;;23.88;36.55;100059.69;4907987;28;45328;-79
2024/03/25 10:43:08;;;;;;;;;1.67;1.67;;;;;23.95;36.79;100060.47;4938585;28;45495;-79
2024/03/25 10:45:36;;;;;;;;;3.00;2.00;;;;;23.93;36.93;100048.44;4938030;28;45381;-78
2024/03/25 10:48:14;;;;;;;;;3.00;2.33;;;;;23.94;36.44;100050.88;4938266;28;47245;-79
2024/03/25 10:50:42;;;;;;;;;2.00;2.00;;;;;23.95;36.26;100035.75;4938126;28;45310;-79
2024/03/25 10:53:08;;;;;;;;;2.00;2.00;;;;;23.95;36.40;100035.75;4938494;28;45332;-79
2024/03/25 10:55:36;;;;;;;;;3.00;3.00;;;;;23.92;36.73;100031.69;4938335;28;45367;-79
2024/03/25 10:58:02;;;;;;;;;2.33;2.00;;;;;23.84;36.38;100024.75;4938245;28;45385;-78
2024/03/25 11:00:28;;;;;;;;;2.67;2.67;;;;;23.92;36.61;100017.56;4937789;28;45507;-79
2024/03/25 11:02:54;;;;;;;;;1.00;1.00;;;;;23.92;36.56;100004.28;4938259;28;45450;-80
2024/03/25 11:05:20;;;;;;;;;3.00;3.00;;;;;23.93;36.53;100000.63;4938321;28;45395;-79
2024/03/25 11:07:46;;;;;;;;;3.33;3.33;;;;;23.85;36.40;99991.88;4937980;28;45370;-79
2024/03/25 11:10:12;;;;;;;;;2.67;2.67;;;;;23.83;36.35;99993.94;4937976;28;45470;-80
2024/03/25 11:12:41;;;;;;;;;1.00;1.00;;;;;23.90;36.49;99993.88;4938287;28;45456;-79
2024/03/25 11:15:07;;;;;;;;;1.00;1.00;;;;;23.86;36.44;99990.03;4937709;28;45482;-78
2024/03/25 11:17:33;;;;;;;;;0.00;0.00;;;;;23.87;36.58;99967.75;4952662;28;48569;-78
2024/03/25 11:20:11;;;;;;;;;1.33;1.33;;;;;23.90;36.89;99974.47;4937873;28;45378;-79
2024/03/25 11:22:50;;;;;;;;;3.00;1.33;;;;;23.90;36.47;99972.63;4925101;28;45347;-79